Portada
METAR-TAF:

METAR-TAF

Aeroports :

Arequipa, Perú

latitud: 16-19S, longitud: 071-33W, altitud: 2538 m

Observació

L'informe es va fer fa 58 minuts, a les 13:00 UTC
Vent 3 kt amb direcció variable
Temperatura 19°C
Humitat 16%
Pressió 1027 hPa
Visibilitat 10 km o més
sense núvols per sota de 1500 mi sense presència de cumulonimbus.

METAR: SPQU 201300Z VRB03KT CAVOK 19/M07 Q1027 RMK PP000

Hora: 08:58 (13:58 UTC)

Pronòstic

L'informe es va fer fa 2 hores i 58 minuts, a les 11:00 UTC
Pronòstic vàlid del 20 a les 12 UTC al 21 a les 12 UTC
Vent 5 kt del Nord/Nord-Est
Visibilitat 10 km o més
sense núvols per sota de 1500 mi sense presència de cumulonimbus.
Evolucionant progressivament
l' 20 a les 14 UTC al 20 a les 16 UTC
Vent 10 kt del Oest/Sud-Oest
Evolucionant progressivament
l' 20 a les 23 UTC al 21 a les 01 UTC
Vent 6 kt del Nord-Est

TAF: SPQU 201100Z 2012/2112 03005KT CAVOK TX25/2019Z TN11/2111Z BECMG 2014/2016 25010KT BECMG 2023/2101 04006KT

Observacions i pronòstics meteorològics de més de 4000 aeroports (METAR i TAF).

Les estacions disponibles són els punts grocs i vermells al mapa.

Posi el ratolí al punt desitjat per veure el nom de l'estació.

Feu clic per veure les observacions i els pronòstics meteorològics.

Per canviar el mapa: feu clic els botons verds amb una creu de color negre per apropar; al botó verd amb un guió per allunyar la imatge; o en les fletxes verdes per a mapes adjacents.


METAR-TAF: